Time;durP1;ratioP1;P1;durP2;ratioP2;P2;SDS_P1;SDS_P2;PMS_P1;PMS_P2;Temp;Humidity;BMP_temperature;BMP_pressure;BME280_temperature;BME280_humidity;BME280_pressure;Samples;Min_cycle;Max_cycle;Signal;HPM_P1;HPM_P2
2023/01/18 00:01:35;;;;;;;;;29.67;25.33;;;;;-146.39;100.00;62182.44;6317400;20;3586832;-61
2023/01/18 00:04:03;;;;;;;;;37.00;33.33;;;;;-146.39;100.00;62182.44;6318545;20;3617962;-61
2023/01/18 00:06:32;;;;;;;;;27.50;25.00;;;;;-146.39;100.00;62182.44;6283951;20;2846140;-62
2023/01/18 00:09:00;;;;;;;;;39.67;35.00;;;;;-146.39;100.00;62182.44;6284548;20;3603389;-62
2023/01/18 00:11:30;;;;;;;;;37.67;33.33;;;;;-146.39;100.00;62182.44;6283490;20;2865026;-61
2023/01/18 00:14:01;;;;;;;;;41.50;31.50;;;;;-146.39;100.00;62182.44;6320222;20;3635848;-61
2023/01/18 00:16:30;;;;;;;;;37.67;35.00;;;;;-146.39;100.00;62182.44;6317969;20;3609660;-61
2023/01/18 00:19:00;;;;;;;;;39.33;34.00;;;;;-146.39;100.00;62182.44;6285276;20;3609609;-61
2023/01/18 00:21:29;;;;;;;;;35.00;33.67;;;;;-146.39;100.00;62182.44;6314617;20;3606545;-61
2023/01/18 00:23:58;;;;;;;;;38.00;31.00;;;;;-146.39;100.00;62182.44;6285490;20;3622174;-61
2023/01/18 00:26:27;;;;;;;;;30.33;30.33;;;;;-146.39;100.00;62182.44;6315888;20;3598383;-61
2023/01/18 00:28:56;;;;;;;;;44.00;37.00;;;;;-146.39;100.00;62182.44;6279049;20;2848361;-61
2023/01/18 00:31:25;;;;;;;;;34.67;32.67;;;;;-146.39;100.00;62182.44;6317031;20;3588952;-62
2023/01/18 00:33:55;;;;;;;;;50.67;38.00;;;;;-146.39;100.00;62182.44;6280728;20;2886802;-62
2023/01/18 00:36:23;;;;;;;;;34.67;30.67;;;;;-146.39;100.00;62182.44;6319592;20;3598199;-62
2023/01/18 00:38:52;;;;;;;;;47.00;38.00;;;;;-146.39;100.00;62182.44;6282391;20;2805504;-61
2023/01/18 00:41:23;;;;;;;;;42.33;37.67;;;;;-146.39;100.00;62182.44;6285944;20;2861803;-61
2023/01/18 00:43:52;;;;;;;;;41.00;37.50;;;;;-146.39;100.00;62182.44;6317617;20;2845167;-61
2023/01/18 00:46:26;;;;;;;;;47.00;35.50;;;;;-146.39;100.00;62182.44;6284101;20;2861733;-61
2023/01/18 00:48:57;;;;;;;;;45.00;37.00;;;;;-146.39;100.00;62182.44;6284298;20;3597616;-61
2023/01/18 00:51:26;;;;;;;;;42.00;37.00;;;;;-146.39;100.00;62182.44;6280844;20;2857744;-61
2023/01/18 00:53:55;;;;;;;;;47.33;37.00;;;;;-146.39;100.00;62182.44;6279983;20;3615875;-62
2023/01/18 00:56:24;;;;;;;;;44.33;38.00;;;;;-146.39;100.00;62182.44;6310428;20;3581583;-61
2023/01/18 00:58:53;;;;;;;;;53.00;38.67;;;;;-146.39;100.00;62182.44;6276701;20;3610661;-60
2023/01/18 01:01:22;;;;;;;;;49.33;36.67;;;;;-146.39;100.00;62182.44;6313507;20;3616935;-61
2023/01/18 01:06:45;;;;;;;;;51.00;40.50;;;;;-146.39;100.00;62182.44;6313884;20;2847144;-61
2023/01/18 01:09:26;;;;;;;;;48.50;40.50;;;;;-146.39;100.00;62182.44;6284160;20;2844055;-61
2023/01/18 01:26:11;;;;;;;;;50.67;41.33;;;;;-146.39;100.00;62182.44;6313429;20;2867074;-61
2023/01/18 01:28:49;;;;;;;;;57.67;45.00;;;;;-146.39;100.00;62182.44;6312311;20;2870314;-61
2023/01/18 01:31:19;;;;;;;;;58.00;42.33;;;;;-146.39;100.00;62182.44;6312867;20;3620276;-61
2023/01/18 01:33:48;;;;;;;;;47.00;39.50;;;;;-146.39;100.00;62182.44;6283688;20;2845106;-60
2023/01/18 01:36:24;;;;;;;;;51.50;38.50;;;;;-146.39;100.00;62182.44;6281447;20;2850332;-61
2023/01/18 01:38:55;;;;;;;;;46.67;37.00;;;;;-146.39;100.00;62182.44;6282065;20;2866200;-61
2023/01/18 01:41:34;;;;;;;;;43.67;35.67;;;;;-146.39;100.00;62182.44;6314629;20;3606562;-61
2023/01/18 01:44:19;;;;;;;;;39.33;35.00;;;;;-146.39;100.00;62182.44;6280133;20;3626700;-61
2023/01/18 01:46:56;;;;;;;;;41.67;38.00;;;;;-146.39;100.00;62182.44;6316478;20;3590946;-61
2023/01/18 01:49:42;;;;;;;;;35.67;34.00;;;;;-146.39;100.00;62182.44;6278840;20;2860842;-61
2023/01/18 01:52:19;;;;;;;;;31.00;30.00;;;;;-146.39;100.00;62182.44;6312123;20;2854441;-61
2023/01/18 01:55:30;;;;;;;;;40.67;34.67;;;;;-146.39;100.00;62182.44;6278636;20;3616986;-61
2023/01/18 01:58:19;;;;;;;;;41.67;34.67;;;;;-146.39;100.00;62182.44;6313462;20;3618050;-61
2023/01/18 02:00:49;;;;;;;;;43.33;38.00;;;;;-146.39;100.00;62182.44;6274446;20;2851542;-61
2023/01/18 02:03:18;;;;;;;;;38.33;35.67;;;;;-146.39;100.00;62182.44;6313734;20;3612900;-61
2023/01/18 02:06:04;;;;;;;;;37.33;33.67;;;;;-146.39;100.00;62182.44;6280961;20;3612778;-61
2023/01/18 02:08:33;;;;;;;;;32.67;30.00;;;;;-146.39;100.00;62182.44;6315293;20;3587785;-60
2023/01/18 02:11:02;;;;;;;;;35.00;29.33;;;;;-146.39;100.00;62182.44;6275040;20;2860775;-61
2023/01/18 02:13:31;;;;;;;;;32.33;27.00;;;;;-146.39;100.00;62182.44;6314769;20;3589866;-61
2023/01/18 02:16:24;;;;;;;;;33.00;30.00;;;;;-146.39;100.00;62182.44;6276449;20;2846137;-60
2023/01/18 02:19:34;;;;;;;;;38.33;30.33;;;;;-146.39;100.00;62182.44;6283059;20;3611738;-61
2023/01/18 02:23:08;;;;;;;;;36.67;33.67;;;;;-146.39;100.00;62182.44;6311405;20;3602444;-61
2023/01/18 02:26:11;;;;;;;;;38.00;33.00;;;;;-146.39;100.00;62182.44;6277615;20;3608641;-61
2023/01/18 02:28:51;;;;;;;;;33.67;29.33;;;;;-146.39;100.00;62182.44;6313664;20;3577470;-61
2023/01/18 02:31:27;;;;;;;;;43.00;37.50;;;;;-146.39;100.00;62182.44;6275489;20;2852770;-61
2023/01/18 02:34:58;;;;;;;;;46.33;31.33;;;;;-146.39;100.00;62182.44;6278729;20;3634719;-61
2023/01/18 02:38:08;;;;;;;;;32.00;29.50;;;;;-146.39;100.00;62182.44;6307142;20;2845079;-60
2023/01/18 02:41:07;;;;;;;;;44.00;33.33;;;;;-146.39;100.00;62182.44;6274476;20;3618003;-61
2023/01/18 02:46:30;;;;;;;;;37.00;35.67;;;;;-146.39;100.00;62182.44;6275052;20;2860693;-60
2023/01/18 02:49:17;;;;;;;;;39.67;32.33;;;;;-146.39;100.00;62182.44;6308767;20;3619180;-61
2023/01/18 02:51:46;;;;;;;;;35.00;30.33;;;;;-146.39;100.00;62182.44;6276459;20;2850418;-61
2023/01/18 02:54:23;;;;;;;;;40.33;32.67;;;;;-146.39;100.00;62182.44;6311302;20;3621343;-61
2023/01/18 02:56:54;;;;;;;;;40.67;35.67;;;;;-146.39;100.00;62182.44;6279760;20;2858656;-60
2023/01/18 02:59:34;;;;;;;;;30.50;25.00;;;;;-146.39;100.00;62182.44;6309310;20;2844567;-60
2023/01/18 03:02:15;;;;;;;;;41.50;38.00;;;;;-146.39;100.00;62182.44;6275480;20;2864919;-61
2023/01/18 03:04:55;;;;;;;;;42.67;36.00;;;;;-146.39;100.00;62182.44;6279465;20;2862844;-60
2023/01/18 03:07:36;;;;;;;;;37.00;34.33;;;;;-146.39;100.00;62182.44;6310053;20;3605594;-60
2023/01/18 03:10:09;;;;;;;;;38.33;34.00;;;;;-146.39;100.00;62182.44;6308867;20;3615316;-60
2023/01/18 03:13:36;;;;;;;;;40.33;32.00;;;;;-146.39;100.00;62182.44;6282023;20;3612801;-60
2023/01/18 03:16:25;;;;;;;;;40.00;29.00;;;;;-146.39;100.00;62182.44;6315209;20;3616883;-60
2023/01/18 03:22:02;;;;;;;;;38.33;33.67;;;;;-146.39;100.00;62182.44;6274845;20;3610827;-60
2023/01/18 03:24:40;;;;;;;;;42.33;35.00;;;;;-146.39;100.00;62182.44;6310060;20;2863920;-60
2023/01/18 03:35:34;;;;;;;;;40.33;36.33;;;;;-146.39;100.00;62182.44;6314497;20;3599391;-60
2023/01/18 03:38:03;;;;;;;;;36.00;33.33;;;;;-146.39;100.00;62182.44;6280288;20;3591926;-60
2023/01/18 03:40:34;;;;;;;;;37.00;30.67;;;;;-146.39;100.00;62182.44;6309066;20;3606508;-60
2023/01/18 03:43:14;;;;;;;;;33.67;31.67;;;;;-146.39;100.00;62182.44;6315745;20;3593992;-61
2023/01/18 03:45:47;;;;;;;;;36.33;30.67;;;;;-146.39;100.00;62182.44;6282199;20;2862828;-60
2023/01/18 03:48:17;;;;;;;;;33.33;30.67;;;;;-146.39;100.00;62182.44;6311156;20;2854523;-60
2023/01/18 03:51:32;;;;;;;;;36.33;31.67;;;;;-146.39;100.00;62182.44;6314313;20;3611768;-60
2023/01/18 03:54:23;;;;;;;;;30.00;20.00;;;;;-146.39;100.00;62182.44;6282473;20;2491988;-60
2023/01/18 03:57:12;;;;;;;;;27.00;26.00;;;;;-146.39;100.00;62182.44;6283394;20;2847180;-60
2023/01/18 03:59:42;;;;;;;;;45.67;38.00;;;;;-146.39;100.00;62182.44;6283771;20;3616982;-60
2023/01/18 04:02:10;;;;;;;;;36.67;33.33;;;;;-146.39;100.00;62182.44;6319084;20;3595190;-60
2023/01/18 04:04:40;;;;;;;;;35.67;28.00;;;;;-146.39;100.00;62182.44;6280625;20;3606751;-60
2023/01/18 04:07:09;;;;;;;;;40.33;33.00;;;;;-146.39;100.00;62182.44;6320807;20;3611913;-60
2023/01/18 04:09:38;;;;;;;;;40.67;32.00;;;;;-146.39;100.00;62182.44;6283507;20;3617035;-60
2023/01/18 04:12:07;;;;;;;;;35.67;30.33;;;;;-146.39;100.00;62182.44;6317996;20;3602370;-60
2023/01/18 04:14:37;;;;;;;;;32.33;31.33;;;;;-146.39;100.00;62182.44;6283531;20;2850335;-61
2023/01/18 04:17:05;;;;;;;;;34.67;32.00;;;;;-146.39;100.00;62182.44;6314051;20;3595062;-60
2023/01/18 04:19:35;;;;;;;;;42.00;32.67;;;;;-146.39;100.00;62182.44;6284070;20;3620027;-60
2023/01/18 04:22:04;;;;;;;;;39.67;35.00;;;;;-146.39;100.00;62182.44;6312653;20;2859771;-60
2023/01/18 04:24:34;;;;;;;;;46.33;38.00;;;;;-146.39;100.00;62182.44;6314037;20;3597155;-60
2023/01/18 04:27:04;;;;;;;;;83.67;66.67;;;;;-146.39;100.00;62182.44;6281210;20;3650312;-60
2023/01/18 04:29:33;;;;;;;;;57.00;47.00;;;;;-146.39;100.00;62182.44;6312529;20;2846114;-60
2023/01/18 04:32:02;;;;;;;;;55.50;43.00;;;;;-146.39;100.00;62182.44;6279673;20;2863856;-60
2023/01/18 04:34:33;;;;;;;;;49.67;40.00;;;;;-146.39;100.00;62182.44;6280829;20;3624288;-60
2023/01/18 04:37:02;;;;;;;;;41.33;36.00;;;;;-146.39;100.00;62182.44;6317162;20;3609682;-60
2023/01/18 04:39:31;;;;;;;;;39.50;36.00;;;;;-146.39;100.00;62182.44;6312481;20;2850291;-60
2023/01/18 04:42:01;;;;;;;;;43.00;36.67;;;;;-146.39;100.00;62182.44;6284333;20;3610084;-60
2023/01/18 04:44:30;;;;;;;;;42.00;36.33;;;;;-146.39;100.00;62182.44;6313176;20;3599216;-60
2023/01/18 04:46:59;;;;;;;;;43.33;36.00;;;;;-146.39;100.00;62182.44;6316350;20;3602351;-60
2023/01/18 04:49:28;;;;;;;;;41.33;36.67;;;;;-146.39;100.00;62182.44;6283688;20;3587172;-60
2023/01/18 04:51:57;;;;;;;;;47.33;37.00;;;;;-146.39;100.00;62182.44;6316361;20;3621182;-60
2023/01/18 04:54:27;;;;;;;;;43.67;36.33;;;;;-146.39;100.00;62182.44;6283159;20;2841086;-59
2023/01/18 04:56:55;;;;;;;;;40.00;32.33;;;;;-146.39;100.00;62182.44;6312856;20;3614859;-59
2023/01/18 04:59:24;;;;;;;;;39.00;37.67;;;;;-146.39;100.00;62182.44;6284142;20;3595952;-60
2023/01/18 05:01:52;;;;;;;;;41.50;38.00;;;;;-146.39;100.00;62182.44;6280912;20;2503427;-59
2023/01/18 05:04:20;;;;;;;;;41.00;37.50;;;;;-146.39;100.00;62182.44;6284092;20;2848265;-59
2023/01/18 05:06:50;;;;;;;;;47.00;38.00;;;;;-146.39;100.00;62182.44;6281414;20;3603571;-60
2023/01/18 05:09:19;;;;;;;;;47.67;38.00;;;;;-146.39;100.00;62182.44;6315422;20;3602923;-60
2023/01/18 05:11:47;;;;;;;;;47.50;38.00;;;;;-146.39;100.00;62182.44;6282922;20;2845100;-59
2023/01/18 05:14:17;;;;;;;;;53.00;39.00;;;;;-146.39;100.00;62182.44;6282815;20;2856601;-59
2023/01/18 05:16:45;;;;;;;;;40.67;38.00;;;;;-146.39;100.00;62182.44;6314036;20;3587753;-59
2023/01/18 05:19:14;;;;;;;;;49.50;38.50;;;;;-146.39;100.00;62182.44;6279433;20;2854516;-60
2023/01/18 05:21:44;;;;;;;;;31.67;31.33;;;;;-146.39;100.00;62182.44;6282121;20;3604425;-60
2023/01/18 05:24:12;;;;;;;;;48.00;37.50;;;;;-146.39;100.00;62182.44;6306322;20;2863825;-60
2023/01/18 05:26:42;;;;;;;;;46.00;36.67;;;;;-146.39;100.00;62182.44;6277660;20;3625366;-59
2023/01/18 05:29:11;;;;;;;;;48.67;37.33;;;;;-146.39;100.00;62182.44;6315041;20;3613835;-59
2023/01/18 05:31:40;;;;;;;;;46.00;38.50;;;;;-146.39;100.00;62182.44;6280784;20;2844499;-59
2023/01/18 05:34:10;;;;;;;;;51.67;40.00;;;;;-146.39;100.00;62182.44;6277861;20;2869118;-60
2023/01/18 05:36:38;;;;;;;;;47.00;41.00;;;;;-146.39;100.00;62182.44;6309502;20;2848243;-59
2023/01/18 05:39:08;;;;;;;;;45.00;37.67;;;;;-146.39;100.00;62182.44;6275480;20;2851935;-59
2023/01/18 05:41:38;;;;;;;;;50.33;38.00;;;;;-146.39;100.00;62182.44;6310633;20;2860862;-59
2023/01/18 05:44:08;;;;;;;;;48.50;38.00;;;;;-146.39;100.00;62182.44;6311287;20;2847185;-58
2023/01/18 05:46:37;;;;;;;;;42.33;35.33;;;;;-146.39;100.00;62182.44;6280317;20;2873197;-59
2023/01/18 05:49:06;;;;;;;;;32.50;30.00;;;;;-146.39;100.00;62182.44;6313381;20;2849671;-59
2023/01/18 05:51:35;;;;;;;;;35.50;31.00;;;;;-146.39;100.00;62182.44;6279462;20;2854437;-60
2023/01/18 05:54:04;;;;;;;;;33.33;27.67;;;;;-146.39;100.00;62182.44;6279042;20;2859667;-59
2023/01/18 05:56:34;;;;;;;;;22.67;19.67;;;;;-146.39;100.00;62182.44;6304501;20;3547271;-59
2023/01/18 05:59:02;;;;;;;;;19.67;15.33;;;;;-146.39;100.00;62182.44;6275745;20;3534804;-59
2023/01/18 06:01:30;;;;;;;;;24.00;20.00;;;;;-146.39;100.00;62182.44;6312668;20;2833643;-59
2023/01/18 06:03:58;;;;;;;;;15.50;13.00;;;;;-146.39;100.00;62182.44;6282122;20;2789983;-59
2023/01/18 06:06:26;;;;;;;;;11.50;7.00;;;;;-146.39;100.00;62182.44;6281740;20;2758607;-58
2023/01/18 06:08:54;;;;;;;;;8.00;8.00;;;;;-146.39;100.00;62182.44;6283424;20;2739887;-58
2023/01/18 06:11:21;;;;;;;;;12.50;9.00;;;;;-146.39;100.00;62182.44;6313749;20;2755495;-56
2023/01/18 06:13:49;;;;;;;;;8.00;7.00;;;;;-146.39;100.00;62182.44;6284062;20;2745089;-59
2023/01/18 06:16:17;;;;;;;;;10.00;10.00;;;;;-146.39;100.00;62182.44;6308358;20;2769070;-60
2023/01/18 06:18:46;;;;;;;;;8.50;6.50;;;;;-146.39;100.00;62182.44;6299957;20;1814026;-58
2023/01/18 06:21:16;;;;;;;;;8.00;8.00;;;;;-146.39;100.00;62182.44;6355777;20;1801362;-59
2023/01/18 06:23:44;;;;;;;;;11.00;9.00;;;;;-146.39;100.00;62182.44;6284423;20;2749213;-60
2023/01/18 06:26:15;;;;;;;;;6.71;6.00;;;;;-146.39;100.00;62182.44;6350991;20;1799415;-61
2023/01/18 06:28:43;;;;;;;;;9.00;7.50;;;;;-146.39;100.00;62182.44;6315718;20;2735747;-59
2023/01/18 06:31:14;;;;;;;;;10.43;9.43;;;;;-146.39;100.00;62182.44;6356391;20;1808640;-59
2023/01/18 06:33:42;;;;;;;;;12.00;8.00;;;;;-146.39;100.00;62182.44;6313494;20;2761744;-61
2023/01/18 06:36:11;;;;;;;;;5.25;5.25;;;;;-146.39;100.00;62182.44;6299039;20;1818163;-60
2023/01/18 06:38:40;;;;;;;;;7.00;7.00;;;;;-146.39;100.00;62182.44;6315611;20;2750439;-61
2023/01/18 06:41:08;;;;;;;;;7.00;6.00;;;;;-146.39;100.00;62182.44;6313905;20;2749241;-61
2023/01/18 06:43:35;;;;;;;;;8.00;5.00;;;;;-146.39;100.00;62182.44;6281847;20;2748211;-61
2023/01/18 06:46:06;;;;;;;;;5.00;5.00;;;;;-146.39;100.00;62182.44;6283885;20;2747142;-60
2023/01/18 06:48:35;;;;;;;;;10.00;7.00;;;;;-146.39;100.00;62182.44;6285713;20;2769011;-60
2023/01/18 06:51:03;;;;;;;;;21.00;16.50;;;;;-146.39;100.00;62182.44;6284866;20;2824263;-61
2023/01/18 06:53:31;;;;;;;;;16.33;15.67;;;;;-146.39;100.00;62182.44;6286064;20;3547209;-60
2023/01/18 06:56:01;;;;;;;;;10.40;10.40;;;;;-146.39;100.00;62182.44;6339432;20;2795108;-61
2023/01/18 06:58:32;;;;;;;;;10.00;10.00;;;;;-146.39;100.00;62182.44;6287209;20;2777516;-60
2023/01/18 07:01:03;;;;;;;;;7.33;6.67;;;;;-146.39;100.00;62182.44;6325163;20;1808607;-60
2023/01/18 07:03:32;;;;;;;;;6.00;4.00;;;;;-146.39;100.00;62182.44;6292345;20;2743231;-61
2023/01/18 07:06:05;;;;;;;;;11.00;7.40;;;;;-146.39;100.00;62182.44;6341956;20;2753441;-61
2023/01/18 07:08:34;;;;;;;;;9.50;9.00;;;;;-146.39;100.00;62182.44;6299572;20;1810791;-61
2023/01/18 07:11:09;;;;;;;;;10.00;10.00;;;;;-146.39;100.00;62182.44;6320135;20;2760711;-60
2023/01/18 07:13:42;;;;;;;;;12.00;9.00;;;;;-146.39;100.00;62182.44;6286352;20;2769036;-61
2023/01/18 07:16:16;;;;;;;;;13.00;11.00;;;;;-146.39;100.00;62182.44;6283411;20;2796148;-61
2023/01/18 07:18:47;;;;;;;;;5.50;4.00;;;;;-146.39;100.00;62182.44;6287748;20;2735667;-60
2023/01/18 07:21:18;;;;;;;;;11.00;11.00;;;;;-146.39;100.00;62182.44;6316728;20;2789861;-61
2023/01/18 07:23:46;;;;;;;;;9.00;8.00;;;;;-146.39;100.00;62182.44;6286462;20;2758651;-61
2023/01/18 07:26:16;;;;;;;;;19.50;14.50;;;;;-146.39;100.00;62182.44;6290228;20;2822141;-61
2023/01/18 07:28:46;;;;;;;;;21.00;17.00;;;;;-146.39;100.00;62182.44;6288300;20;2820031;-60
2023/01/18 07:31:17;;;;;;;;;13.60;12.20;;;;;-146.39;100.00;62182.44;6311152;20;2785857;-62
2023/01/18 07:33:45;;;;;;;;;12.00;11.50;;;;;-146.39;100.00;62182.44;6280901;20;2792156;-61
2023/01/18 07:36:14;;;;;;;;;10.00;10.00;;;;;-146.39;100.00;62182.44;6282162;20;2790005;-61
2023/01/18 07:38:44;;;;;;;;;15.80;14.40;;;;;-146.39;100.00;62182.44;6341322;20;2797166;-60
2023/01/18 07:41:15;;;;;;;;;15.00;14.00;;;;;-146.39;100.00;62182.44;6278806;20;2809700;-61
2023/01/18 07:43:44;;;;;;;;;22.50;17.50;;;;;-146.39;100.00;62182.44;6284518;20;2837896;-61
2023/01/18 07:46:19;;;;;;;;;17.00;14.00;;;;;-146.39;100.00;62182.44;6283365;20;2804628;-62
2023/01/18 07:48:48;;;;;;;;;16.00;13.67;;;;;-146.39;100.00;62182.44;6313619;20;3520046;-61
2023/01/18 07:51:16;;;;;;;;;13.50;11.00;;;;;-146.39;100.00;62182.44;6317526;20;2794031;-61
2023/01/18 07:53:45;;;;;;;;;15.00;12.20;;;;;-146.39;100.00;62182.44;6306988;20;2785698;-61
2023/01/18 07:56:17;;;;;;;;;10.80;10.20;;;;;-146.39;100.00;62182.44;6311454;20;2796250;-61
2023/01/18 07:58:47;;;;;;;;;15.80;12.60;;;;;-146.39;100.00;62182.44;6301815;20;2797238;-61
2023/01/18 08:01:19;;;;;;;;;11.25;7.25;;;;;-146.39;100.00;62182.44;6303242;20;1815421;-61
2023/01/18 08:03:52;;;;;;;;;9.80;9.00;;;;;-146.39;100.00;62182.44;6335896;20;2774305;-62
2023/01/18 08:06:24;;;;;;;;;4.00;4.00;;;;;-146.39;100.00;62182.44;6301918;20;1814976;-62
2023/01/18 08:08:56;;;;;;;;;12.00;5.75;;;;;-146.39;100.00;62182.44;6332283;20;1818102;-61
2023/01/18 08:11:24;;;;;;;;;9.00;7.50;;;;;-146.39;100.00;62182.44;6318918;20;2748236;-61
2023/01/18 08:13:52;;;;;;;;;6.00;5.00;;;;;-146.39;100.00;62182.44;6313841;20;2736846;-62
2023/01/18 08:16:19;;;;;;;;;10.50;8.50;;;;;-146.39;100.00;62182.44;6287534;20;2763820;-62
2023/01/18 08:18:50;;;;;;;;;11.00;6.00;;;;;-146.39;100.00;62182.44;6314920;20;2760817;-61
2023/01/18 08:21:20;;;;;;;;;8.60;5.40;;;;;-146.39;100.00;62182.44;6343785;20;2748217;-61
2023/01/18 08:23:50;;;;;;;;;8.75;8.75;;;;;-146.39;100.00;62182.44;6333212;20;1815513;-61
2023/01/18 08:26:18;;;;;;;;;2.50;2.50;;;;;-146.39;100.00;62182.44;6334600;20;1811877;-61
2023/01/18 08:28:46;;;;;;;;;7.00;7.00;;;;;-146.39;100.00;62182.44;6318620;20;2725305;-61
2023/01/18 08:31:20;;;;;;;;;14.20;8.80;;;;;-146.39;100.00;62182.44;6343620;20;2753412;-61
2023/01/18 08:33:49;;;;;;;;;8.33;7.33;;;;;-146.39;100.00;62182.44;6335280;20;1808717;-62
2023/01/18 08:36:24;;;;;;;;;12.80;12.00;;;;;-146.39;100.00;62182.44;6339318;20;2796171;-62
2023/01/18 08:38:58;;;;;;;;;10.00;9.00;;;;;-146.39;100.00;62182.44;6298912;20;1810975;-61
2023/01/18 08:41:28;;;;;;;;;15.00;14.50;;;;;-146.39;100.00;62182.44;6316770;20;2814241;-62
2023/01/18 08:43:59;;;;;;;;;15.20;11.00;;;;;-146.39;100.00;62182.44;6309324;20;2796211;-62
2023/01/18 08:46:29;;;;;;;;;15.80;13.20;;;;;-146.39;100.00;62182.44;6308548;20;2803507;-60
2023/01/18 08:48:58;;;;;;;;;14.67;11.33;;;;;-146.39;100.00;62182.44;6280888;20;2790945;-61
2023/01/18 08:51:27;;;;;;;;;12.33;12.33;;;;;-146.39;100.00;62182.44;6312174;20;2803498;-60
2023/01/18 08:53:58;;;;;;;;;17.00;16.33;;;;;-146.39;100.00;62182.44;6338415;20;2825344;-61
2023/01/18 08:56:27;;;;;;;;;15.67;11.33;;;;;-146.39;100.00;62182.44;6314224;20;2788855;-60
2023/01/18 08:58:56;;;;;;;;;9.00;9.00;;;;;-146.39;100.00;62182.44;6311333;20;2750407;-61
2023/01/18 09:01:26;;;;;;;;;10.00;10.00;;;;;-146.39;100.00;62182.44;6309294;20;2783637;-60
2023/01/18 09:03:57;;;;;;;;;8.00;8.00;;;;;-146.39;100.00;62182.44;6282889;20;2744026;-61
2023/01/18 09:06:30;;;;;;;;;10.00;10.00;;;;;-146.39;100.00;62182.44;6283244;20;2773171;-60
2023/01/18 09:09:00;;;;;;;;;6.50;4.50;;;;;-146.39;100.00;62182.44;6297079;20;1817024;-61
2023/01/18 09:11:28;;;;;;;;;6.00;6.00;;;;;-146.39;100.00;62182.44;6317897;20;2751321;-61
2023/01/18 09:13:58;;;;;;;;;3.75;3.75;;;;;-146.39;100.00;62182.44;6303616;20;1817207;-61
2023/01/18 09:16:30;;;;;;;;;3.00;3.00;;;;;-146.39;100.00;62182.44;6329351;20;1824352;-61
2023/01/18 09:19:00;;;;;;;;;3.00;3.00;;;;;-146.39;100.00;62182.44;6317639;20;2752379;-61
2023/01/18 09:21:30;;;;;;;;;3.00;3.00;;;;;-146.39;100.00;62182.44;6303053;20;1812846;-60
2023/01/18 09:23:58;;;;;;;;;5.50;4.00;;;;;-146.39;100.00;62182.44;6330690;20;1821261;-61
2023/01/18 09:26:29;;;;;;;;;2.50;2.00;;;;;-146.39;100.00;62182.44;6335435;20;1809736;-61
2023/01/18 09:28:58;;;;;;;;;4.00;2.00;;;;;-146.39;100.00;62182.44;6330887;20;1808714;-60
2023/01/18 09:31:27;;;;;;;;;4.00;3.00;;;;;-146.39;100.00;62182.44;6318172;20;2756540;-61
2023/01/18 09:33:56;;;;;;;;;6.00;6.00;;;;;-146.39;100.00;62182.44;6281092;20;2746302;-61
2023/01/18 09:36:48;;;;;;;;;7.75;7.00;;;;;-146.39;100.00;62182.44;6327555;20;1799807;-60
2023/01/18 09:39:17;;;;;;;;;8.00;5.00;;;;;-146.39;100.00;62182.44;6306964;20;2744062;-60
2023/01/18 09:41:59;;;;;;;;;8.50;4.00;;;;;-146.39;100.00;62182.44;6300043;20;1825486;-60
2023/01/18 09:44:37;;;;;;;;;4.00;4.00;;;;;-146.39;100.00;62182.44;6315460;20;2748190;-61
2023/01/18 09:47:25;;;;;;;;;9.50;7.00;;;;;-146.39;100.00;62182.44;6281099;20;2753409;-60
2023/01/18 09:50:22;;;;;;;;;14.20;9.40;;;;;-146.39;100.00;62182.44;6304027;20;2752360;-60
2023/01/18 09:53:45;;;;;;;;;5.00;5.00;;;;;-146.39;100.00;62182.44;6281804;20;2745129;-61
2023/01/18 09:56:29;;;;;;;;;9.00;7.00;;;;;-146.39;100.00;62182.44;6313471;20;2725321;-61
2023/01/18 09:59:29;;;;;;;;;9.50;4.50;;;;;-146.39;100.00;62182.44;6310716;20;2757561;-60
2023/01/18 10:02:11;;;;;;;;;17.00;15.33;;;;;-146.39;100.00;62182.44;6279928;20;3549342;-60
2023/01/18 10:04:48;;;;;;;;;14.00;14.00;;;;;-146.39;100.00;62182.44;6316049;20;2804431;-61
2023/01/18 10:07:18;;;;;;;;;19.00;16.00;;;;;-146.39;100.00;62182.44;6280521;20;3569011;-61
2023/01/18 10:09:55;;;;;;;;;16.50;16.50;;;;;-146.39;100.00;62182.44;6307684;20;2489863;-61
2023/01/18 10:12:51;;;;;;;;;19.67;16.33;;;;;-146.39;100.00;62182.44;6280129;20;3550259;-61
2023/01/18 10:15:26;;;;;;;;;21.33;17.00;;;;;-146.39;100.00;62182.44;6311753;20;3575798;-60
2023/01/18 10:17:59;;;;;;;;;21.67;16.67;;;;;-146.39;100.00;62182.44;6307029;20;3562932;-60
2023/01/18 10:21:00;;;;;;;;;19.33;14.67;;;;;-146.39;100.00;62182.44;6283610;20;3550301;-60
2023/01/18 10:24:05;;;;;;;;;8.50;5.00;;;;;-146.39;100.00;62182.44;6300901;20;1819131;-61
2023/01/18 10:26:38;;;;;;;;;17.00;17.00;;;;;-146.39;100.00;62182.44;6311272;20;2500414;-61
2023/01/18 10:29:53;;;;;;;;;16.33;14.67;;;;;-146.39;100.00;62182.44;6284062;20;3524249;-61
2023/01/18 10:32:25;;;;;;;;;17.33;17.33;;;;;-146.39;100.00;62182.44;6317334;20;3554465;-61
2023/01/18 10:34:54;;;;;;;;;16.00;15.33;;;;;-146.39;100.00;62182.44;6314536;20;3560686;-61
2023/01/18 10:37:39;;;;;;;;;15.20;15.20;;;;;-146.39;100.00;62182.44;6305642;20;2799244;-60
2023/01/18 10:40:12;;;;;;;;;24.00;21.00;;;;;-146.39;100.00;62182.44;6285764;20;3571114;-61
2023/01/18 10:42:51;;;;;;;;;20.67;16.67;;;;;-146.39;100.00;62182.44;6285289;20;3554498;-61
2023/01/18 10:45:30;;;;;;;;;19.00;17.00;;;;;-146.39;100.00;62182.44;6280640;20;3574211;-61
2023/01/18 10:48:33;;;;;;;;;19.00;17.00;;;;;-146.39;100.00;62182.44;6290276;20;1973280;-61
2023/01/18 10:51:06;;;;;;;;;15.33;14.00;;;;;-146.39;100.00;62182.44;6283944;20;3529813;-60
2023/01/18 10:53:37;;;;;;;;;13.00;13.00;;;;;-146.39;100.00;62182.44;6317133;20;2788926;-61
2023/01/18 10:56:24;;;;;;;;;16.50;12.50;;;;;-146.39;100.00;62182.44;6283653;20;2798202;-61
2023/01/18 10:58:59;;;;;;;;;15.00;12.67;;;;;-146.39;100.00;62182.44;6283432;20;2795178;-61
2023/01/18 11:01:51;;;;;;;;;17.50;16.50;;;;;-146.39;100.00;62182.44;6316532;20;2823220;-61
2023/01/18 11:04:28;;;;;;;;;13.67;13.33;;;;;-146.39;100.00;62182.44;6284689;20;2794242;-61
2023/01/18 11:07:02;;;;;;;;;16.50;15.00;;;;;-146.39;100.00;62182.44;6321474;20;2817060;-62
2023/01/18 11:09:53;;;;;;;;;15.67;13.67;;;;;-146.39;100.00;62182.44;6284398;20;3533665;-61
2023/01/18 11:12:43;;;;;;;;;19.00;16.00;;;;;-146.39;100.00;62182.44;6314766;20;2833663;-61
2023/01/18 11:15:13;;;;;;;;;11.50;10.50;;;;;-146.39;100.00;62182.44;6286736;20;2782636;-61
2023/01/18 11:17:53;;;;;;;;;14.67;14.67;;;;;-146.39;100.00;62182.44;6283391;20;2806689;-62
2023/01/18 11:20:32;;;;;;;;;15.00;15.00;;;;;-146.39;100.00;62182.44;6316541;20;3558991;-61
2023/01/18 11:23:06;;;;;;;;;9.50;4.50;;;;;-146.39;100.00;62182.44;6314956;20;2759647;-61
2023/01/18 11:25:44;;;;;;;;;15.50;12.00;;;;;-146.39;100.00;62182.44;6284560;20;2795115;-62
2023/01/18 11:28:41;;;;;;;;;11.00;9.40;;;;;-146.39;100.00;62182.44;6307868;20;2784685;-61
2023/01/18 11:31:24;;;;;;;;;9.80;9.80;;;;;-146.39;100.00;62182.44;6305231;20;2779466;-61
2023/01/18 11:34:05;;;;;;;;;16.33;13.67;;;;;-146.39;100.00;62182.44;6281746;20;3538973;-62
2023/01/18 11:36:42;;;;;;;;;19.00;15.33;;;;;-146.39;100.00;62182.44;6316118;20;3553567;-62
2023/01/18 11:39:38;;;;;;;;;14.67;14.00;;;;;-146.39;100.00;62182.44;6280537;20;2805578;-61
2023/01/18 11:42:33;;;;;;;;;25.50;19.50;;;;;-146.39;100.00;62182.44;6309142;20;2492125;-62
2023/01/18 11:45:34;;;;;;;;;21.50;18.50;;;;;-146.39;100.00;62182.44;6282880;20;2827369;-62
2023/01/18 11:48:47;;;;;;;;;11.00;9.50;;;;;-146.39;100.00;62182.44;6283700;20;2779535;-61